Time;durP1;ratioP1;P1;durP2;ratioP2;P2;SDS_P1;SDS_P2;PMS_P1;PMS_P2;Temp;Humidity;BMP_temperature;BMP_pressure;BME280_temperature;BME280_humidity;BME280_pressure;Samples;Min_cycle;Max_cycle;Signal;HPM_P1;HPM_P2
2022/06/21 00:00:17;;;;;;;10.30;6.53;;;23.30;98.90;;;;;;5073947;28;20486;-74
2022/06/21 00:02:44;;;;;;;12.70;6.47;;;23.40;98.90;;;;;;5058953;28;20054;-74
2022/06/21 00:05:31;;;;;;;10.40;6.32;;;23.30;99.00;;;;;;5069245;28;20470;-74
2022/06/21 00:07:57;;;;;;;14.60;8.13;;;23.30;99.10;;;;;;5085814;28;20028;-74
2022/06/21 00:10:23;;;;;;;11.57;7.40;;;23.10;99.30;;;;;;5061056;28;20060;-75
2022/06/21 00:12:49;;;;;;;17.65;6.32;;;23.20;99.30;;;;;;5057027;28;20029;-74
2022/06/21 00:15:15;;;;;;;9.40;6.18;;;23.40;99.10;;;;;;5063770;28;20371;-75
2022/06/21 00:17:48;;;;;;;9.25;6.63;;;23.40;98.90;;;;;;5061005;28;20036;-75
2022/06/21 00:20:20;;;;;;;12.40;6.90;;;23.30;98.90;;;;;;5078019;28;20478;-75
2022/06/21 00:22:47;;;;;;;11.27;7.47;;;22.90;99.60;;;;;;5057129;28;20640;-75
2022/06/21 00:25:23;;;;;;;12.98;6.60;;;22.90;99.70;;;;;;5058805;28;20151;-74
2022/06/21 00:27:49;;;;;;;10.00;6.80;;;22.90;99.70;;;;;;5061425;28;20055;-74
2022/06/21 00:30:17;;;;;;;16.10;7.25;;;22.50;99.90;;;;;;5068444;28;20435;-75
2022/06/21 00:32:44;;;;;;;10.85;6.75;;;22.50;99.90;;;;;;5087558;28;20029;-75
2022/06/21 00:35:13;;;;;;;12.43;6.57;;;22.50;99.90;;;;;;5087871;28;20059;-75
2022/06/21 00:37:41;;;;;;;11.18;6.55;;;22.50;99.90;;;;;;5089056;28;20041;-75
2022/06/21 00:40:30;;;;;;;14.00;7.10;;;22.50;99.90;;;;;;5089041;28;20366;-74
2022/06/21 00:43:07;;;;;;;11.48;7.40;;;22.60;99.90;;;;;;5082857;28;20558;-74
2022/06/21 00:45:42;;;;;;;12.13;7.22;;;22.80;99.90;;;;;;5086100;28;20070;-74
2022/06/21 00:48:39;;;;;;;15.38;6.95;;;22.80;99.90;;;;;;5083778;28;20036;-74
2022/06/21 00:51:32;;;;;;;10.23;6.40;;;22.70;99.90;;;;;;5088352;28;20048;-74
2022/06/21 00:54:08;;;;;;;11.20;7.10;;;22.80;99.90;;;;;;5088472;28;20036;-74
2022/06/21 00:56:38;;;;;;;11.35;6.93;;;22.80;99.90;;;;;;5089339;28;20038;-74
2022/06/21 00:59:21;;;;;;;11.48;7.97;;;22.80;99.90;;;;;;5083680;28;20382;-75
2022/06/21 01:01:48;;;;;;;14.30;7.47;;;22.90;99.90;;;;;;5088062;28;20432;-74
2022/06/21 01:04:34;;;;;;;12.63;7.25;;;22.90;99.90;;;;;;5116310;28;20470;-74
2022/06/21 01:07:02;;;;;;;12.32;8.02;;;22.80;99.90;;;;;;5086628;28;20394;-73
2022/06/21 01:09:35;;;;;;;11.13;7.13;;;22.60;99.90;;;;;;5089695;28;20044;-74
2022/06/21 01:12:14;;;;;;;9.88;7.10;;;22.70;99.90;;;;;;5087426;28;20024;-74
2022/06/21 01:14:57;;;;;;;16.52;7.68;;;22.70;99.90;;;;;;5089533;28;20462;-74
2022/06/21 01:17:25;;;;;;;9.40;7.03;;;22.80;99.90;;;;;;5077882;28;20367;-75
2022/06/21 01:19:59;;;;;;;11.70;7.18;;;22.60;99.90;;;;;;5097489;28;20024;-74
2022/06/21 01:22:52;;;;;;;12.55;7.60;;;22.50;99.90;;;;;;5092465;28;20127;-74
2022/06/21 01:25:42;;;;;;;12.80;6.63;;;22.50;99.90;;;;;;5084315;28;20028;-74
2022/06/21 01:28:09;;;;;;;13.10;7.55;;;22.50;99.90;;;;;;5083775;28;20036;-74
2022/06/21 01:30:36;;;;;;;10.60;7.43;;;22.40;99.90;;;;;;5078799;28;20119;-74
2022/06/21 01:33:03;;;;;;;13.52;7.43;;;22.40;99.90;;;;;;5084813;28;20025;-75
2022/06/21 01:35:48;;;;;;;16.63;7.82;;;22.40;99.90;;;;;;5089735;28;20557;-75
2022/06/21 01:38:22;;;;;;;14.55;7.90;;;22.40;99.90;;;;;;5086991;28;20721;-74
2022/06/21 01:40:51;;;;;;;14.38;8.15;;;22.40;99.90;;;;;;5089434;28;20382;-74
2022/06/21 01:43:20;;;;;;;10.23;8.05;;;22.40;99.90;;;;;;5085198;28;20032;-75
2022/06/21 01:46:09;;;;;;;14.63;6.72;;;22.20;99.90;;;;;;5085411;28;20390;-74
2022/06/21 01:48:40;;;;;;;13.32;6.80;;;22.00;99.90;;;;;;5081954;28;20039;-74
2022/06/21 01:51:25;;;;;;;10.93;7.05;;;22.00;99.90;;;;;;5083986;28;20021;-74
2022/06/21 01:53:52;;;;;;;19.35;8.02;;;21.90;99.90;;;;;;5086364;28;20099;-74
2022/06/21 01:56:21;;;;;;;11.27;6.97;;;21.70;99.90;;;;;;5092868;28;20066;-74
2022/06/21 01:58:57;;;;;;;11.45;7.22;;;21.70;99.90;;;;;;5084625;28;20028;-74
2022/06/21 02:01:35;;;;;;;11.93;7.88;;;21.90;99.90;;;;;;5086880;28;20085;-74
2022/06/21 02:04:03;;;;;;;17.15;7.50;;;22.10;99.90;;;;;;5085671;28;20406;-74
2022/06/21 02:06:33;;;;;;;13.52;7.70;;;22.00;99.90;;;;;;5088804;28;20029;-74
2022/06/21 02:09:03;;;;;;;14.85;7.65;;;22.00;99.90;;;;;;5087598;28;20430;-74
2022/06/21 02:11:44;;;;;;;13.55;7.65;;;22.00;99.90;;;;;;5089610;28;20521;-74
2022/06/21 02:14:28;;;;;;;12.23;7.30;;;21.70;99.90;;;;;;5086980;28;20050;-74
2022/06/21 02:17:08;;;;;;;17.77;8.02;;;21.70;99.90;;;;;;5082309;28;20035;-74
2022/06/21 02:19:48;;;;;;;15.23;8.13;;;21.90;99.90;;;;;;5087372;28;20667;-74
2022/06/21 02:22:25;;;;;;;13.13;7.13;;;22.00;99.90;;;;;;5089447;28;20036;-75
2022/06/21 02:24:53;;;;;;;12.98;6.88;;;22.20;99.90;;;;;;5089534;28;20032;-74
2022/06/21 02:27:23;;;;;;;15.15;7.85;;;22.00;99.90;;;;;;5092646;28;20075;-75
2022/06/21 02:29:54;;;;;;;14.50;8.07;;;22.10;99.90;;;;;;5091391;28;20028;-74
2022/06/21 02:32:35;;;;;;;12.93;7.80;;;22.00;99.90;;;;;;5090108;28;20024;-74
2022/06/21 02:35:40;;;;;;;11.85;7.75;;;22.00;99.90;;;;;;5087178;28;20028;-74
2022/06/21 02:38:12;;;;;;;12.18;7.13;;;21.90;99.90;;;;;;5089020;28;20040;-74
2022/06/21 02:40:44;;;;;;;9.27;7.53;;;21.80;99.90;;;;;;5086025;28;20032;-73
2022/06/21 02:43:18;;;;;;;14.75;8.18;;;21.70;99.90;;;;;;5090258;28;20077;-75
2022/06/21 02:46:02;;;;;;;13.20;7.85;;;21.60;99.90;;;;;;5089520;28;20024;-74
2022/06/21 02:48:33;;;;;;;14.68;7.40;;;21.40;99.90;;;;;;5076803;28;20123;-74
2022/06/21 02:51:05;;;;;;;12.07;7.30;;;21.20;99.90;;;;;;5091161;28;20027;-74
2022/06/21 02:53:42;;;;;;;11.40;7.13;;;21.30;99.90;;;;;;5087560;28;20027;-74
2022/06/21 02:56:33;;;;;;;17.60;8.82;;;21.20;99.90;;;;;;5081347;28;20168;-74
2022/06/21 02:59:01;;;;;;;10.40;7.85;;;21.20;99.90;;;;;;5088277;28;20038;-74
2022/06/21 03:01:31;;;;;;;10.90;8.02;;;21.20;99.90;;;;;;5087006;28;20032;-74
2022/06/21 03:03:58;;;;;;;14.18;6.85;;;21.20;99.90;;;;;;5077440;28;20674;-74
2022/06/21 03:06:26;;;;;;;13.30;8.05;;;21.10;99.90;;;;;;5088677;28;20861;-74
2022/06/21 03:08:56;;;;;;;15.00;7.78;;;21.20;99.90;;;;;;5085719;28;20040;-74
2022/06/21 03:11:27;;;;;;;13.23;7.32;;;21.20;99.90;;;;;;5086425;28;20623;-74
2022/06/21 03:13:54;;;;;;;11.77;7.97;;;21.20;99.90;;;;;;5084002;28;20089;-74
2022/06/21 03:16:22;;;;;;;16.13;9.30;;;21.20;99.90;;;;;;5076755;28;20073;-74
2022/06/21 03:18:54;;;;;;;13.05;7.50;;;21.20;99.90;;;;;;5075506;28;20062;-74
2022/06/21 03:21:30;;;;;;;14.00;8.07;;;21.10;99.90;;;;;;5085939;28;20119;-74
2022/06/21 03:23:58;;;;;;;13.82;8.80;;;21.10;99.90;;;;;;5081352;28;20028;-74
2022/06/21 03:26:26;;;;;;;10.85;7.57;;;21.20;99.90;;;;;;5084410;28;20443;-74
2022/06/21 03:28:53;;;;;;;14.70;8.90;;;21.50;99.90;;;;;;5081411;28;20024;-74
2022/06/21 03:31:28;;;;;;;12.30;7.43;;;21.50;99.90;;;;;;5082636;28;20025;-74
2022/06/21 03:33:57;;;;;;;11.10;7.40;;;21.50;99.90;;;;;;5080518;28;20085;-74
2022/06/21 03:36:25;;;;;;;15.80;8.52;;;21.40;99.90;;;;;;5087645;28;20031;-74
2022/06/21 03:39:00;;;;;;;14.85;7.78;;;21.30;99.90;;;;;;5083848;28;20058;-75
2022/06/21 03:41:45;;;;;;;11.43;7.53;;;21.40;99.90;;;;;;5088425;28;20067;-74
2022/06/21 03:44:24;;;;;;;15.13;8.13;;;21.30;99.90;;;;;;5078811;28;20031;-74
2022/06/21 03:47:12;;;;;;;15.45;8.05;;;21.20;99.90;;;;;;5074741;28;20039;-74
2022/06/21 03:49:57;;;;;;;15.77;8.57;;;21.10;99.90;;;;;;5092499;28;20300;-74
2022/06/21 03:52:55;;;;;;;11.70;7.97;;;21.20;99.90;;;;;;5086890;28;20032;-74
2022/06/21 03:55:43;;;;;;;11.10;7.40;;;21.10;99.90;;;;;;5079400;28;20036;-74
2022/06/21 03:58:34;;;;;;;18.63;8.48;;;21.10;99.90;;;;;;5086678;28;20035;-74
2022/06/21 04:01:11;;;;;;;10.77;6.72;;;21.20;99.90;;;;;;5062050;27;20378;-74
2022/06/21 04:03:49;;;;;;;20.65;9.02;;;21.10;99.90;;;;;;5076513;28;20032;-73
2022/06/21 04:06:42;;;;;;;11.45;8.05;;;21.10;99.90;;;;;;5078313;28;20035;-74
2022/06/21 04:09:12;;;;;;;14.32;7.45;;;21.10;99.90;;;;;;5078014;28;20056;-74
2022/06/21 04:11:55;;;;;;;11.40;7.68;;;21.00;99.90;;;;;;5079427;28;20195;-75
2022/06/21 04:14:31;;;;;;;10.23;7.45;;;21.00;99.90;;;;;;5071864;28;20027;-74
2022/06/21 04:17:04;;;;;;;14.45;7.63;;;21.10;99.90;;;;;;5073370;28;20043;-74
2022/06/21 04:19:57;;;;;;;18.77;8.70;;;21.10;99.90;;;;;;5076289;28;20028;-74
2022/06/21 04:22:45;;;;;;;11.93;8.32;;;21.20;99.90;;;;;;5069981;28;20486;-74
2022/06/21 04:25:20;;;;;;;15.02;8.30;;;21.40;99.90;;;;;;5084686;28;20032;-74
2022/06/21 04:28:02;;;;;;;16.65;8.63;;;21.40;99.90;;;;;;5078865;28;20047;-74
2022/06/21 04:30:49;;;;;;;12.48;7.82;;;21.50;99.90;;;;;;5083279;28;20044;-75
2022/06/21 04:33:19;;;;;;;13.05;7.65;;;21.40;99.90;;;;;;5079977;28;20063;-74
2022/06/21 04:35:52;;;;;;;14.32;7.80;;;21.50;99.90;;;;;;5079631;28;20462;-74
2022/06/21 04:38:31;;;;;;;12.68;8.43;;;21.40;99.90;;;;;;5081871;28;20020;-74
2022/06/21 04:41:06;;;;;;;10.90;7.80;;;21.40;99.90;;;;;;5080445;28;20500;-74
2022/06/21 04:43:44;;;;;;;14.80;8.43;;;21.50;99.90;;;;;;5070047;28;20025;-74
2022/06/21 04:46:20;;;;;;;12.55;7.35;;;21.50;99.90;;;;;;5079599;28;20111;-74
2022/06/21 04:49:02;;;;;;;15.18;7.70;;;21.70;99.90;;;;;;5077931;28;20055;-74
2022/06/21 04:51:49;;;;;;;15.50;8.40;;;21.90;99.90;;;;;;5078274;28;20039;-74
2022/06/21 04:54:24;;;;;;;13.10;8.52;;;21.90;99.90;;;;;;5082763;28;20032;-74
2022/06/21 04:57:24;;;;;;;13.63;9.02;;;22.00;99.90;;;;;;5073741;28;20110;-74
2022/06/21 04:59:55;;;;;;;13.80;7.57;;;22.20;99.90;;;;;;5083784;28;20108;-74
2022/06/21 05:02:29;;;;;;;10.60;8.68;;;22.20;99.90;;;;;;5073183;28;20176;-74
2022/06/21 05:05:10;;;;;;;14.05;8.70;;;22.30;99.90;;;;;;5075167;28;20041;-74
2022/06/21 05:07:42;;;;;;;12.68;7.88;;;22.30;99.90;;;;;;5080459;28;20054;-74
2022/06/21 05:10:16;;;;;;;15.90;7.80;;;22.40;99.90;;;;;;5083454;28;20112;-76
2022/06/21 05:12:43;;;;;;;;;;;22.50;99.90;;;;;;5077805;28;20048;-75
2022/06/21 05:15:28;;;;;;;14.38;8.48;;;22.50;99.90;;;;;;5077705;28;20896;-75
2022/06/21 05:18:23;;;;;;;17.98;9.23;;;22.40;99.90;;;;;;5073154;28;20129;-75
2022/06/21 05:20:55;;;;;;;12.57;9.25;;;22.30;99.90;;;;;;5076318;28;20043;-75
2022/06/21 05:23:23;;;;;;;15.85;9.32;;;22.50;99.90;;;;;;5081668;28;20023;-74
2022/06/21 05:25:50;;;;;;;13.38;8.85;;;22.70;99.90;;;;;;5078998;28;20663;-75
2022/06/21 05:28:18;;;;;;;14.40;8.90;;;22.60;99.90;;;;;;5085038;28;20044;-74
2022/06/21 05:30:49;;;;;;;12.52;9.43;;;22.60;99.90;;;;;;5081877;28;20107;-74
2022/06/21 05:33:27;;;;;;;21.90;10.27;;;22.80;99.90;;;;;;5084502;28;20039;-74
2022/06/21 05:35:53;;;;;;;13.00;8.32;;;22.80;99.90;;;;;;5083761;28;20024;-74
2022/06/21 05:38:25;;;;;;;14.50;9.88;;;22.80;99.90;;;;;;5079302;28;20028;-73
2022/06/21 05:41:32;;;;;;;15.43;8.82;;;22.90;99.90;;;;;;5085716;28;20035;-74
2022/06/21 05:44:02;;;;;;;15.73;8.90;;;23.00;99.90;;;;;;5077484;28;20506;-72
2022/06/21 05:46:30;;;;;;;15.98;10.13;;;23.10;99.90;;;;;;5083471;28;20041;-74
2022/06/21 05:48:58;;;;;;;15.73;9.90;;;23.10;99.90;;;;;;5084449;28;20047;-73
2022/06/21 05:51:28;;;;;;;13.32;9.23;;;23.10;99.90;;;;;;5084815;28;20074;-74
2022/06/21 05:53:58;;;;;;;17.02;10.32;;;23.20;99.90;;;;;;5081616;28;20123;-73
2022/06/21 05:56:26;;;;;;;18.35;10.07;;;23.10;99.90;;;;;;5086544;28;20028;-74
2022/06/21 05:59:04;;;;;;;16.05;9.05;;;23.00;99.90;;;;;;5080396;28;20466;-74
2022/06/21 06:01:30;;;;;;;13.00;9.23;;;23.10;99.90;;;;;;5085152;28;20120;-73
2022/06/21 06:03:58;;;;;;;19.63;9.57;;;23.00;99.90;;;;;;5081994;28;20526;-74
2022/06/21 06:06:29;;;;;;;11.77;8.85;;;23.00;99.90;;;;;;5083407;28;20517;-74
2022/06/21 06:09:01;;;;;;;15.13;9.48;;;23.00;99.90;;;;;;5081401;28;20032;-74
2022/06/21 06:11:57;;;;;;;14.30;9.40;;;23.10;99.90;;;;;;5084197;28;20036;-74
2022/06/21 06:14:18;;;;;;;12.32;9.25;;;23.00;99.90;;;;;;5084530;28;20123;-74
2022/06/21 06:16:48;;;;;;;20.08;9.30;;;23.10;99.90;;;;;;5075530;28;20127;-74
2022/06/21 06:19:48;;;;;;;14.38;9.10;;;23.20;99.90;;;;;;5093491;28;20020;-74
2022/06/21 06:23:00;;;;;;;16.60;9.65;;;23.40;99.90;;;;;;5088842;28;20051;-74
2022/06/21 06:25:39;;;;;;;13.80;9.55;;;23.30;99.90;;;;;;5083150;28;20094;-74
2022/06/21 06:28:20;;;;;;;15.70;9.15;;;23.20;99.90;;;;;;5078624;28;20044;-74
2022/06/21 06:30:58;;;;;;;13.52;9.13;;;23.50;99.90;;;;;;5081012;28;20035;-74
2022/06/21 06:33:37;;;;;;;14.07;10.18;;;23.60;99.90;;;;;;5082485;28;20040;-74
2022/06/21 06:36:16;;;;;;;17.40;9.70;;;23.60;99.90;;;;;;5075105;28;20027;-74
2022/06/21 06:38:42;;;;;;;16.00;10.00;;;23.70;99.90;;;;;;5078713;28;20032;-74
2022/06/21 06:41:20;;;;;;;19.02;10.10;;;23.70;99.90;;;;;;5081279;28;20023;-73
2022/06/21 06:44:05;;;;;;;15.13;10.45;;;23.70;99.90;;;;;;5080447;28;20054;-74
2022/06/21 06:46:33;;;;;;;17.83;10.07;;;23.80;99.90;;;;;;5080296;28;20063;-74
2022/06/21 06:49:06;;;;;;;17.05;10.10;;;23.90;99.90;;;;;;5083489;28;20509;-74
2022/06/21 06:52:00;;;;;;;17.95;10.35;;;23.90;99.90;;;;;;5084737;28;20028;-74
2022/06/21 06:54:46;;;;;;;12.27;9.93;;;23.90;99.80;;;;;;5085898;28;20028;-74
2022/06/21 06:57:38;;;;;;;22.98;9.88;;;23.90;99.90;;;;;;5079302;28;20436;-73
2022/06/21 07:00:33;;;;;;;17.30;10.07;;;24.00;99.90;;;;;;5086661;28;20123;-73
2022/06/21 07:03:27;;;;;;;11.98;8.65;;;24.20;99.70;;;;;;5083873;28;20031;-73
2022/06/21 07:06:04;;;;;;;17.33;10.48;;;24.20;99.70;;;;;;5085834;28;20031;-73
2022/06/21 07:08:41;;;;;;;16.67;10.52;;;24.40;99.40;;;;;;5081607;28;20060;-73
2022/06/21 07:11:35;;;;;;;18.38;11.40;;;24.60;99.60;;;;;;5086146;28;22127;-73
2022/06/21 07:14:01;;;;;;;24.85;10.63;;;24.90;99.80;;;;;;5086179;28;20035;-72
2022/06/21 07:16:30;;;;;;;17.30;10.05;;;25.00;99.10;;;;;;5086417;28;20028;-76
2022/06/21 07:18:59;;;;;;;21.83;11.07;;;25.20;98.90;;;;;;5088267;28;20047;-73
2022/06/21 07:21:26;;;;;;;15.20;10.20;;;25.30;98.50;;;;;;5088802;28;20039;-73
2022/06/21 07:23:57;;;;;;;14.00;9.80;;;25.60;98.00;;;;;;5088565;28;20398;-73
2022/06/21 07:26:40;;;;;;;15.00;10.20;;;25.80;97.70;;;;;;5086649;28;20035;-74
2022/06/21 07:29:18;;;;;;;12.55;9.48;;;26.10;97.70;;;;;;5086149;28;20039;-76
2022/06/21 07:31:59;;;;;;;14.07;10.48;;;26.30;97.90;;;;;;5084895;28;20154;-74
2022/06/21 07:34:42;;;;;;;16.48;9.98;;;26.80;97.30;;;;;;5087480;28;20681;-74
2022/06/21 07:37:24;;;;;;;14.68;9.20;;;27.00;96.70;;;;;;5087649;28;20131;-73
2022/06/21 07:40:26;;;;;;;13.68;9.93;;;27.00;95.80;;;;;;5085745;28;20032;-74
2022/06/21 07:43:21;;;;;;;18.08;10.30;;;27.20;95.00;;;;;;5076718;28;20421;-74
2022/06/21 07:45:59;;;;;;;13.45;9.00;;;27.50;95.50;;;;;;5086814;28;20119;-75
2022/06/21 07:48:37;;;;;;;15.40;9.43;;;27.00;95.30;;;;;;5086823;28;20043;-74
2022/06/21 07:51:12;;;;;;;18.95;10.82;;;27.30;95.60;;;;;;5087734;28;20031;-73
2022/06/21 07:53:47;;;;;;;16.23;9.48;;;27.50;95.40;;;;;;5082500;28;20109;-74
2022/06/21 07:56:18;;;;;;;17.60;10.13;;;27.70;95.20;;;;;;5086196;28;20032;-74
2022/06/21 20:50:42;;;;;;;10.13;3.25;;;24.10;99.20;;;;;;5063628;28;20421;-75
2022/06/21 20:53:20;;;;;;;10.13;4.03;;;23.90;98.90;;;;;;5063283;28;20029;-72
2022/06/21 20:56:01;;;;;;;9.20;4.55;;;23.90;99.60;;;;;;5063140;28;20523;-71
2022/06/21 20:58:38;;;;;;;8.00;3.85;;;23.90;99.90;;;;;;5065991;28;20529;-72
2022/06/21 21:03:01;;;;;;;7.97;4.10;;;23.70;99.90;;;;;;5126807;27;20112;-75
2022/06/21 21:05:33;;;;;;;10.18;4.20;;;23.20;99.90;;;;;;5122165;28;20035;-75
2022/06/21 21:08:12;;;;;;;15.85;5.50;;;22.80;99.90;;;;;;5126249;28;20484;-75
2022/06/21 21:10:43;;;;;;;10.32;4.57;;;22.80;99.90;;;;;;5118906;28;20031;-75
2022/06/21 21:13:17;;;;;;;10.82;5.03;;;22.80;99.90;;;;;;5125623;28;20038;-75
2022/06/21 21:16:06;;;;;;;10.50;4.15;;;22.90;99.90;;;;;;5124992;28;20039;-75
2022/06/21 21:19:12;;;;;;;13.48;4.53;;;22.90;99.90;;;;;;5125755;28;20035;-76
2022/06/21 21:21:55;;;;;;;16.38;4.00;;;23.00;99.90;;;;;;5095385;28;20126;-75
2022/06/21 21:24:31;;;;;;;9.82;3.97;;;23.00;99.90;;;;;;5124549;28;20034;-75
2022/06/21 21:27:01;;;;;;;10.43;4.00;;;22.80;99.90;;;;;;5125753;28;20074;-75
2022/06/21 21:29:29;;;;;;;16.10;4.97;;;22.80;99.90;;;;;;5125258;28;20391;-75
2022/06/21 21:32:35;;;;;;;13.07;4.25;;;22.80;99.90;;;;;;5122678;28;21281;-74
2022/06/21 21:35:35;;;;;;;9.25;4.63;;;23.00;99.90;;;;;;5124086;28;20369;-74
2022/06/21 21:38:24;;;;;;;10.45;3.85;;;22.90;99.90;;;;;;5122280;28;20027;-74
2022/06/21 21:41:09;;;;;;;10.48;4.15;;;23.10;99.90;;;;;;5115443;28;20043;-74
2022/06/21 21:43:38;;;;;;;18.45;5.88;;;23.30;99.90;;;;;;5105767;28;20062;-74
2022/06/21 21:46:09;;;;;;;17.08;4.90;;;23.20;99.90;;;;;;5115875;28;20033;-76
2022/06/21 21:48:43;;;;;;;9.70;4.50;;;22.70;99.90;;;;;;5116642;28;20066;-74
2022/06/21 21:51:18;;;;;;;10.38;4.43;;;22.40;99.90;;;;;;5117675;28;20041;-75
2022/06/21 21:53:46;;;;;;;13.52;4.38;;;22.30;99.90;;;;;;5122342;28;20031;-76
2022/06/21 21:56:22;;;;;;;15.07;4.63;;;21.90;99.90;;;;;;5121628;28;20028;-77
2022/06/21 21:58:49;;;;;;;11.02;4.95;;;21.80;99.90;;;;;;5121606;28;20036;-75
2022/06/21 22:01:18;;;;;;;13.15;4.35;;;21.60;99.90;;;;;;5114806;28;20134;-74
2022/06/21 22:04:01;;;;;;;10.35;5.05;;;21.60;99.90;;;;;;5119196;28;20110;-74
2022/06/21 22:06:44;;;;;;;13.40;4.70;;;21.70;99.90;;;;;;5111789;28;20057;-75
2022/06/21 22:09:14;;;;;;;12.48;4.75;;;21.60;99.90;;;;;;5118094;28;20075;-75
2022/06/21 22:12:10;;;;;;;10.00;4.63;;;21.50;99.90;;;;;;5115100;27;20034;-74
2022/06/21 22:14:50;;;;;;;11.63;5.00;;;21.60;99.90;;;;;;5097525;28;20645;-74
2022/06/21 22:17:36;;;;;;;14.05;4.40;;;21.60;99.90;;;;;;5107688;28;20038;-74
2022/06/21 22:20:35;;;;;;;13.73;4.65;;;21.40;99.90;;;;;;5107196;28;20062;-74
2022/06/21 22:23:05;;;;;;;13.77;4.80;;;21.30;99.90;;;;;;5099235;28;20038;-74
2022/06/21 22:25:36;;;;;;;13.90;4.20;;;21.30;99.90;;;;;;5102310;28;20032;-74
2022/06/21 22:28:06;;;;;;;12.32;5.00;;;21.30;99.90;;;;;;5110771;28;20027;-74
2022/06/21 22:30:41;;;;;;;18.45;4.55;;;21.20;99.90;;;;;;5104269;28;20504;-74
2022/06/21 22:33:13;;;;;;;16.38;4.90;;;21.10;99.90;;;;;;5107424;28;20065;-74
2022/06/21 22:35:40;;;;;;;13.60;5.13;;;21.00;99.90;;;;;;5103397;28;20028;-74
2022/06/21 22:38:06;;;;;;;12.70;4.65;;;20.90;99.90;;;;;;5110324;28;20054;-74
2022/06/21 22:40:36;;;;;;;13.32;4.75;;;21.20;99.90;;;;;;5091586;28;20477;-74
2022/06/21 22:43:17;;;;;;;12.20;4.57;;;21.00;99.90;;;;;;5105316;28;20027;-74
2022/06/21 22:45:46;;;;;;;16.98;4.40;;;21.10;99.90;;;;;;5105184;28;20378;-74
2022/06/21 22:48:23;;;;;;;13.73;4.57;;;20.90;99.90;;;;;;5108579;28;20028;-74
2022/06/21 22:50:50;;;;;;;14.80;4.35;;;20.90;99.90;;;;;;5106847;28;20035;-74
2022/06/21 22:53:30;;;;;;;14.38;5.35;;;20.90;99.90;;;;;;5102556;28;20027;-74
2022/06/21 22:55:58;;;;;;;14.23;4.35;;;20.80;99.90;;;;;;5105605;28;20043;-74
2022/06/21 22:58:31;;;;;;;13.05;4.38;;;21.00;99.90;;;;;;5107870;28;20032;-74
2022/06/21 23:01:13;;;;;;;17.83;5.30;;;20.80;99.90;;;;;;5099416;28;20146;-74
2022/06/21 23:04:03;;;;;;;10.77;3.97;;;20.90;99.90;;;;;;5101794;28;20023;-74
2022/06/21 23:06:37;;;;;;;18.45;5.18;;;21.00;99.90;;;;;;5108430;28;20032;-74
2022/06/21 23:09:12;;;;;;;10.80;4.75;;;21.10;99.90;;;;;;5110389;28;20031;-74
2022/06/21 23:11:46;;;;;;;14.38;4.20;;;21.10;99.90;;;;;;5107035;28;20024;-74
2022/06/21 23:14:15;;;;;;;12.00;5.55;;;21.10;99.90;;;;;;5103102;28;20035;-74
2022/06/21 23:16:43;;;;;;;19.52;5.00;;;21.10;99.90;;;;;;5108583;28;20034;-73
2022/06/21 23:19:16;;;;;;;18.05;4.50;;;21.00;99.90;;;;;;5111197;28;20024;-73
2022/06/21 23:21:55;;;;;;;19.48;4.95;;;21.10;99.90;;;;;;5099285;28;20048;-73
2022/06/21 23:24:23;;;;;;;12.77;5.50;;;21.00;99.90;;;;;;5109266;28;20486;-74
2022/06/21 23:26:59;;;;;;;15.10;4.78;;;21.10;99.90;;;;;;5112345;28;20035;-74
2022/06/21 23:29:32;;;;;;;11.60;4.28;;;21.00;99.90;;;;;;5111429;28;20466;-73
2022/06/21 23:32:02;;;;;;;21.45;4.78;;;20.80;99.90;;;;;;5109887;28;20063;-73
2022/06/21 23:34:50;;;;;;;8.15;4.10;;;20.80;99.90;;;;;;5105004;28;20046;-73
2022/06/21 23:37:30;;;;;;;9.93;4.25;;;20.80;99.90;;;;;;5092390;28;20050;-73
2022/06/21 23:39:57;;;;;;;13.68;4.95;;;21.00;99.90;;;;;;5104933;28;20035;-74
2022/06/21 23:42:26;;;;;;;15.60;4.10;;;21.10;99.90;;;;;;5106132;28;20042;-74
2022/06/21 23:45:16;;;;;;;12.32;4.45;;;21.20;99.90;;;;;;5110673;28;20031;-74
2022/06/21 23:47:43;;;;;;;11.27;3.97;;;21.10;99.90;;;;;;5108117;28;20027;-74
2022/06/21 23:50:23;;;;;;;13.10;4.53;;;21.10;99.90;;;;;;5109377;28;20034;-73
2022/06/21 23:52:52;;;;;;;10.25;4.53;;;21.20;99.90;;;;;;5105516;28;20031;-74
2022/06/21 23:55:21;;;;;;;13.32;5.10;;;20.90;99.90;;;;;;5107337;28;20084;-74
2022/06/21 23:57:48;;;;;;;9.60;4.85;;;20.70;99.90;;;;;;5103698;28;20067;-74
